createdAt,value
2022-12-09T00:00:21.242Z,93125.00
2022-12-09T00:04:24.910Z,93121.00
2022-12-09T00:08:27.218Z,93125.00
2022-12-09T00:12:29.368Z,93113.00
2022-12-09T00:16:31.291Z,93097.00
2022-12-09T00:20:36.408Z,93073.00
2022-12-09T00:25:08.286Z,93088.00
2022-12-09T00:29:11.356Z,93084.00
2022-12-09T00:33:41.359Z,93085.00
2022-12-09T00:38:00.745Z,93095.00
2022-12-09T00:42:03.165Z,93105.00
2022-12-09T00:46:07.738Z,93097.00
2022-12-09T00:50:11.481Z,93107.00
2022-12-09T00:54:25.873Z,93098.00
2022-12-09T00:58:27.771Z,93095.00
2022-12-09T01:02:30.011Z,93096.00
2022-12-09T01:06:32.285Z,93091.00
2022-12-09T01:11:27.284Z,93092.00
2022-12-09T01:15:29.659Z,93094.00
2022-12-09T01:19:45.697Z,93104.00
2022-12-09T01:23:49.423Z,93103.00
2022-12-09T01:27:58.699Z,93089.00
2022-12-09T01:32:26.064Z,93092.00
2022-12-09T01:36:29.871Z,93085.00
2022-12-09T01:40:32.022Z,93081.00
2022-12-09T01:45:20.638Z,93075.00
2022-12-09T01:49:52.526Z,93084.00
2022-12-09T01:53:54.682Z,93068.00
2022-12-09T01:57:57.166Z,93072.00
2022-12-09T02:02:05.113Z,93077.00
2022-12-09T02:06:56.833Z,93086.00
2022-12-09T02:11:40.088Z,93068.00
2022-12-09T02:15:42.353Z,93057.00
2022-12-09T02:20:07.203Z,93064.00
2022-12-09T02:24:22.225Z,93058.00
2022-12-09T02:29:03.170Z,93060.00
2022-12-09T02:33:47.473Z,93074.00
2022-12-09T02:38:11.717Z,93074.00
2022-12-09T02:43:18.969Z,93074.00
2022-12-09T02:47:32.095Z,93092.00
2022-12-09T02:51:42.430Z,93093.00
2022-12-09T02:55:49.728Z,93077.00
2022-12-09T02:59:52.561Z,93079.00
2022-12-09T03:03:55.989Z,93075.00
2022-12-09T03:08:28.365Z,93074.00
2022-12-09T03:12:34.226Z,93064.00
2022-12-09T03:17:21.867Z,93062.00
2022-12-09T03:21:26.379Z,93044.00
2022-12-09T03:25:32.302Z,93046.00
2022-12-09T03:29:46.801Z,93048.00
2022-12-09T03:33:53.767Z,93045.00
2022-12-09T03:37:59.314Z,93050.00
2022-12-09T03:42:05.937Z,93044.00
2022-12-09T03:46:15.261Z,93036.00
2022-12-09T03:51:05.638Z,92997.00
2022-12-09T03:55:19.872Z,92988.00
2022-12-09T03:59:23.900Z,93005.00
2022-12-09T04:03:28.546Z,92994.00
2022-12-09T04:07:30.941Z,92989.00
2022-12-09T04:11:34.390Z,93008.00
2022-12-09T04:16:06.603Z,93009.00
2022-12-09T04:20:09.518Z,93007.00
2022-12-09T04:24:11.990Z,92985.00
2022-12-09T04:28:13.929Z,92962.00
2022-12-09T04:32:18.503Z,92958.00
2022-12-09T04:36:21.324Z,92939.00
2022-12-09T04:40:28.354Z,92935.00
2022-12-09T04:44:30.223Z,92938.00
2022-12-09T04:48:58.298Z,92946.00
2022-12-09T04:53:03.797Z,92938.00
2022-12-09T04:58:20.985Z,92936.00
2022-12-09T05:02:26.016Z,92937.00
2022-12-09T05:07:31.544Z,92920.00
2022-12-09T05:11:34.511Z,92938.00
2022-12-09T05:15:47.970Z,92922.00
2022-12-09T05:19:53.214Z,92930.00
2022-12-09T05:23:55.291Z,92918.00
2022-12-09T05:27:57.386Z,92919.00
2022-12-09T05:31:59.598Z,92915.00
2022-12-09T05:36:09.954Z,92901.00
2022-12-09T05:40:12.468Z,92905.00
2022-12-09T05:44:15.260Z,92905.00
2022-12-09T05:48:17.228Z,92897.00
2022-12-09T05:52:19.503Z,92901.00
2022-12-09T05:56:24.380Z,92891.00
2022-12-09T06:00:32.465Z,92871.00
2022-12-09T06:04:38.510Z,92876.00
2022-12-09T06:08:41.935Z,92874.00
2022-12-09T06:12:44.216Z,92856.00
2022-12-09T06:16:46.689Z,92878.00
2022-12-09T06:20:48.645Z,92880.00
2022-12-09T06:24:56.804Z,92874.00
2022-12-09T06:28:59.946Z,92873.00
2022-12-09T06:33:02.303Z,92866.00
2022-12-09T06:37:05.181Z,92856.00
2022-12-09T06:41:12.389Z,92860.00
2022-12-09T06:45:14.638Z,92851.00
2022-12-09T06:49:27.359Z,92846.00
2022-12-09T06:53:29.980Z,92853.00
2022-12-09T06:57:32.310Z,92852.00
2022-12-09T07:02:54.435Z,92866.00
2022-12-09T07:06:56.701Z,92863.00
2022-12-09T07:11:02.904Z,92860.00
2022-12-09T07:15:07.391Z,92843.00
2022-12-09T07:19:18.209Z,92835.00
2022-12-09T07:23:22.633Z,92835.00
2022-12-09T07:27:35.591Z,92821.00
2022-12-09T07:32:11.683Z,92830.00
2022-12-09T07:36:20.509Z,92831.00
2022-12-09T07:40:23.431Z,92831.00
2022-12-09T07:44:28.283Z,92831.00
2022-12-09T07:48:30.752Z,92828.00
2022-12-09T07:52:33.699Z,92837.00
2022-12-09T07:56:35.755Z,92834.00
2022-12-09T08:00:39.817Z,92845.00
2022-12-09T08:04:42.270Z,92838.00
2022-12-09T08:08:45.386Z,92842.00
2022-12-09T08:12:48.113Z,92835.00
2022-12-09T08:17:09.075Z,92840.00
2022-12-09T08:21:17.560Z,92825.00
2022-12-09T08:25:19.933Z,92830.00
2022-12-09T08:29:22.342Z,92820.00
2022-12-09T08:33:25.350Z,92827.00
2022-12-09T08:37:27.894Z,92817.00
2022-12-09T08:41:37.442Z,92812.00
2022-12-09T08:45:41.786Z,92810.00
2022-12-09T08:49:43.832Z,92804.00
2022-12-09T08:53:46.897Z,92800.00
2022-12-09T08:57:49.512Z,92785.00
2022-12-09T09:01:51.774Z,92778.00
2022-12-09T09:05:54.265Z,92770.00
2022-12-09T09:09:56.528Z,92768.00
2022-12-09T09:13:59.434Z,92771.00
2022-12-09T09:18:01.491Z,92745.00
2022-12-09T09:22:04.949Z,92745.00
2022-12-09T09:26:43.379Z,92744.00
2022-12-09T09:30:47.279Z,92736.00
2022-12-09T09:34:50.791Z,92729.00
2022-12-09T09:38:55.075Z,92733.00
2022-12-09T09:42:58.696Z,92725.00
2022-12-09T09:47:13.962Z,92714.00
2022-12-09T09:51:19.372Z,92720.00
2022-12-09T09:55:46.751Z,92724.00
2022-12-09T10:00:20.557Z,92707.00
2022-12-09T10:05:12.148Z,92704.00
2022-12-09T10:09:33.483Z,92704.00
2022-12-09T10:14:35.165Z,92695.00
2022-12-09T10:19:16.409Z,92682.00
2022-12-09T10:23:35.166Z,92672.00
2022-12-09T10:28:17.434Z,92667.00
2022-12-09T10:32:25.968Z,92654.00
2022-12-09T10:36:46.239Z,92655.00
2022-12-09T10:40:50.023Z,92646.00
2022-12-09T10:45:08.617Z,92655.00
2022-12-09T10:49:19.172Z,92660.00
2022-12-09T10:53:24.082Z,92673.00
2022-12-09T10:57:28.949Z,92669.00
2022-12-09T11:01:59.701Z,92647.00
2022-12-09T11:06:31.402Z,92631.00
2022-12-09T11:10:50.531Z,92628.00
2022-12-09T11:14:59.854Z,92634.00
2022-12-09T11:19:03.384Z,92645.00
2022-12-09T11:23:17.152Z,92624.00
2022-12-09T11:27:33.271Z,92615.00
2022-12-09T11:31:41.987Z,92606.00
2022-12-09T11:35:44.207Z,92612.00
2022-12-09T11:39:52.661Z,92610.00
2022-12-09T11:44:35.018Z,92610.00
2022-12-09T11:48:43.240Z,92603.00
2022-12-09T11:53:08.181Z,92603.00
2022-12-09T11:57:23.419Z,92605.00
2022-12-09T12:07:20.546Z,92605.00
2022-12-09T12:11:32.349Z,92599.00
2022-12-09T12:16:40.117Z,92588.00
2022-12-09T12:20:53.298Z,92584.00
2022-12-09T12:25:20.975Z,92580.00
2022-12-09T12:29:47.514Z,92570.00
2022-12-09T12:34:25.293Z,92556.00
2022-12-09T12:39:07.513Z,92540.00
2022-12-09T12:44:09.714Z,92529.00
2022-12-09T12:48:24.924Z,92536.00
2022-12-09T12:53:11.688Z,92538.00
2022-12-09T12:57:19.253Z,92531.00
2022-12-09T13:01:31.905Z,92533.00
2022-12-09T13:05:50.950Z,92522.00
2022-12-09T13:14:26.164Z,92513.00
2022-12-09T13:19:07.186Z,92501.00
2022-12-09T13:23:46.512Z,92511.00
2022-12-09T13:28:00.190Z,92503.00
2022-12-09T13:32:42.713Z,92490.00
2022-12-09T13:37:41.735Z,92485.00
2022-12-09T13:42:06.856Z,92474.00
2022-12-09T13:46:22.289Z,92471.00
2022-12-09T13:50:40.755Z,92473.00
2022-12-09T13:54:49.869Z,92472.00
2022-12-09T13:59:19.787Z,92460.00
2022-12-09T14:03:32.850Z,92453.00
2022-12-09T14:07:46.746Z,92451.00
2022-12-09T14:11:52.276Z,92456.00
2022-12-09T14:16:29.426Z,92451.00
2022-12-09T14:20:39.782Z,92458.00
2022-12-09T14:24:42.322Z,92449.00
2022-12-09T14:29:11.008Z,92449.00
2022-12-09T14:33:33.796Z,92444.00
2022-12-09T14:37:41.674Z,92447.00
2022-12-09T14:42:30.120Z,92440.00
2022-12-09T14:47:32.382Z,92437.00
2022-12-09T14:51:46.775Z,92432.00
2022-12-09T14:55:50.635Z,92426.00
2022-12-09T14:59:55.800Z,92417.00
2022-12-09T15:03:59.858Z,92408.00
2022-12-09T15:08:02.286Z,92410.00
2022-12-09T15:12:10.641Z,92415.00
2022-12-09T15:16:16.154Z,92407.00
2022-12-09T15:20:23.013Z,92407.00
2022-12-09T15:24:51.249Z,92415.00
2022-12-09T15:28:56.267Z,92416.00
2022-12-09T15:32:58.418Z,92412.00
2022-12-09T15:37:06.377Z,92419.00
2022-12-09T15:41:33.541Z,92420.00
2022-12-09T15:45:43.629Z,92410.00
2022-12-09T15:50:41.783Z,92420.00
2022-12-09T15:54:57.112Z,92418.00
2022-12-09T15:59:05.352Z,92417.00
2022-12-09T16:03:29.592Z,92406.00
2022-12-09T16:07:32.976Z,92414.00
2022-12-09T16:11:55.684Z,92407.00
2022-12-09T16:16:03.757Z,92416.00
2022-12-09T16:20:33.114Z,92421.00
2022-12-09T16:29:34.461Z,92391.00
2022-12-09T16:33:39.549Z,92384.00
2022-12-09T16:38:09.624Z,92387.00
2022-12-09T16:42:37.924Z,92391.00
2022-12-09T16:46:42.874Z,92385.00
2022-12-09T16:51:00.520Z,92374.00
2022-12-09T16:55:02.636Z,92397.00
2022-12-09T16:59:04.985Z,92394.00
2022-12-09T17:03:18.692Z,92357.00
2022-12-09T17:07:35.560Z,92383.00
2022-12-09T17:12:04.614Z,92388.00
2022-12-09T17:16:37.596Z,92403.00
2022-12-09T17:21:08.629Z,92399.00
2022-12-09T17:25:10.923Z,92392.00
2022-12-09T17:29:13.754Z,92373.00
2022-12-09T17:33:15.742Z,92407.00
2022-12-09T17:37:17.659Z,92395.00
2022-12-09T17:41:24.126Z,92395.00
2022-12-09T17:45:27.052Z,92414.00
2022-12-09T17:49:29.564Z,92385.00
2022-12-09T17:53:32.024Z,92421.00
2022-12-09T17:57:34.103Z,92405.00
2022-12-09T18:01:37.441Z,92428.00
2022-12-09T18:05:44.004Z,92406.00
2022-12-09T18:10:02.486Z,92420.00
2022-12-09T18:14:06.859Z,92423.00
2022-12-09T18:18:12.417Z,92433.00
2022-12-09T18:22:15.075Z,92406.00
2022-12-09T18:26:19.419Z,92435.00
2022-12-09T18:30:21.968Z,92444.00
2022-12-09T18:34:28.815Z,92427.00
2022-12-09T18:38:30.834Z,92417.00
2022-12-09T18:42:42.014Z,92445.00
2022-12-09T18:46:47.150Z,92442.00
2022-12-09T18:50:51.644Z,92446.00
2022-12-09T18:54:55.186Z,92442.00
2022-12-09T18:59:06.433Z,92452.00
2022-12-09T19:03:15.830Z,92419.00
2022-12-09T19:07:17.866Z,92451.00
2022-12-09T19:11:30.683Z,92442.00
2022-12-09T19:15:34.340Z,92450.00
2022-12-09T19:19:38.304Z,92456.00
2022-12-09T19:23:47.093Z,92460.00
2022-12-09T19:27:58.699Z,92464.00
2022-12-09T19:32:05.575Z,92470.00
2022-12-09T19:36:30.142Z,92475.00
2022-12-09T19:40:32.060Z,92463.00
2022-12-09T19:45:00.081Z,92476.00
2022-12-09T19:49:24.032Z,92487.00
2022-12-09T19:53:44.784Z,92480.00
2022-12-09T19:57:46.775Z,92501.00
2022-12-09T20:01:48.936Z,92498.00
2022-12-09T20:05:53.131Z,92497.00
2022-12-09T20:10:03.561Z,92519.00
2022-12-09T20:14:31.087Z,92520.00
2022-12-09T20:18:39.270Z,92514.00
2022-12-09T20:22:43.273Z,92515.00
2022-12-09T20:26:45.533Z,92528.00
2022-12-09T20:30:47.447Z,92531.00
2022-12-09T20:34:51.438Z,92535.00
2022-12-09T20:38:57.113Z,92540.00
2022-12-09T20:42:59.322Z,92535.00
2022-12-09T20:47:01.265Z,92536.00
2022-12-09T20:51:05.660Z,92543.00
2022-12-09T20:55:08.092Z,92558.00
2022-12-09T20:59:12.219Z,92560.00
2022-12-09T21:03:14.552Z,92536.00
2022-12-09T21:07:28.399Z,92565.00
2022-12-09T21:11:30.626Z,92580.00
2022-12-09T21:15:42.104Z,92585.00
2022-12-09T21:20:41.459Z,92576.00
2022-12-09T21:24:47.376Z,92566.00
2022-12-09T21:28:52.866Z,92572.00
2022-12-09T21:32:55.709Z,92575.00
2022-12-09T21:37:01.403Z,92580.00
2022-12-09T21:41:05.056Z,92590.00
2022-12-09T21:45:10.965Z,92585.00
2022-12-09T21:49:13.886Z,92585.00
2022-12-09T21:53:17.298Z,92586.00
2022-12-09T21:57:19.376Z,92580.00
2022-12-09T22:01:34.561Z,92597.00
2022-12-09T22:05:40.948Z,92593.00
2022-12-09T22:09:43.999Z,92599.00
2022-12-09T22:14:11.922Z,92610.00
2022-12-09T22:18:31.404Z,92603.00
2022-12-09T22:22:45.717Z,92600.00
2022-12-09T22:26:48.121Z,92616.00
2022-12-09T22:30:50.200Z,92600.00
2022-12-09T22:34:53.944Z,92603.00
2022-12-09T22:38:56.138Z,92600.00
2022-12-09T22:43:07.664Z,92598.00
2022-12-09T22:47:10.032Z,92607.00
2022-12-09T22:51:15.394Z,92594.00
2022-12-09T22:55:19.529Z,92606.00
2022-12-09T22:59:21.442Z,92608.00
2022-12-09T23:03:23.762Z,92620.00
2022-12-09T23:07:30.842Z,92622.00
2022-12-09T23:11:35.599Z,92628.00
2022-12-09T23:16:34.590Z,92620.00
2022-12-09T23:21:10.705Z,92614.00
2022-12-09T23:25:44.879Z,92620.00
2022-12-09T23:30:13.363Z,92641.00
2022-12-09T23:34:16.124Z,92631.00
2022-12-09T23:38:22.992Z,92620.00
2022-12-09T23:42:35.374Z,92630.00
2022-12-09T23:46:38.090Z,92611.00
2022-12-09T23:50:40.648Z,92630.00
2022-12-09T23:54:45.966Z,92638.00
2022-12-09T23:58:52.724Z,92642.00
